Portada
METAR-TAF:

METAR-TAF

Aeroports :

Cambridge, Anglaterra

latitud: 52-12N, longitud: 000-11E, altitud: 15 m

Observació

L'informe es va fer fa 3 hores i 47 minuts, a les 16:50 UTC
Vent 4 kt del Nord, variant entre Nord-Oest i Nord/Nord-Est
Temperatura 25°C
Humitat 41%
Pressió 1016 hPa
Visibilitat 10 km o més
sense núvols per sota de 1500 mi sense presència de cumulonimbus.

METAR: EGSC 161650Z 36004KT 320V030 CAVOK 25/11 Q1016

Hora: 21:37 (20:37 UTC)

Pronòstic

L'informe es va fer fa 6 hores i 40 minuts, a les 13:57 UTC
Pronòstic vàlid del 16 a les 15 UTC al 16 a les 19 UTC
Vent 4 kt del Sud-Oest
Visibilitat 10 km o més
Núvols disperses a una alçada de 4500 ft

TAF: EGSC 161357Z 1615/1619 23004KT 9999 SCT045

Observacions i pronòstics meteorològics de més de 4000 aeroports (METAR i TAF).

Les estacions disponibles són els punts grocs i vermells al mapa.

Posi el ratolí al punt desitjat per veure el nom de l'estació.

Feu clic per veure les observacions i els pronòstics meteorològics.

Per canviar el mapa: feu clic els botons verds amb una creu de color negre per apropar; al botó verd amb un guió per allunyar la imatge; o en les fletxes verdes per a mapes adjacents.


METAR-TAF: